Lutselk'e Airport
CYLK : now visible

Airfield :











YOU CAN JOIN US ON...

 
LOGIN :

Register | Disclaimer

   EN    FR    IT 

 









Legend :    VFR   Marginal VFR   IFR   Intensive IFR   Very Intensive IFR
Visi :
Ceiling :
>= 8 km
>= 3000ft
5 to 8 km
1000 to 3000 ft
1500m to 5 km
500 to 1000 ft
800 to 1500m
200 to 500 ft
< 800m
< 200 ft
Symbols :   Thunderstorms  Fog  Heavy snow  Heavy precipitations  Wind > 20 kt






- Airport Elevation : 596 ft
- IATA code : YSG


CYLK - Lutselk'e

CURRENT METAR :
  • 172200Z 24007KT 25SM SKC M28/M35 A3034 RMK SLP306

EXPIRED METARs :
  • 172100Z 25007KT 190V260 25SM SKC M29/M35 A3032 RMK SLP299
  • 172000Z 26007KT 25SM FEW150 M30/M36 A3030 RMK AC1 AC TR SLP294

TAF TAF CYLK
Valid from the 17 at 19:00 until the 18 at 01:00 UTC


171838Z 1719/1801 23005KT P6SM FEW150 RMK NXT FCST WILL BE ISSUED AT 181645Z



MET'MAP, your aeronautical weather chart ! - Copyright ORBIFLY December 2007 - Disclaimer

ORBIFLY MET'MAP TEAM :

Programming & Development : Alexandra Zaïnal
Concept & original design : Baudouin d'Aumeries
Assistance for programming : Marc-Olivier Méhu
Technical & hardware support : Manuel Goepfert

Contact : metmap@orbifly.com




SOURCES & CREDITS :

   NOAA       Earth
Advisory